sensor_id;sensor_type;location;lat;lon;timestamp;P1;durP1;ratioP1;P2;durP2;ratioP2
51636;SDS011;37713;53.254;6.460;2023-12-22T00:01:19;26.42;;;4.10;;
51636;SDS011;37713;53.254;6.460;2023-12-22T00:03:45;24.05;;;3.65;;
51636;SDS011;37713;53.254;6.460;2023-12-22T00:06:11;27.25;;;3.88;;
51636;SDS011;37713;53.254;6.460;2023-12-22T00:08:37;19.95;;;3.13;;
51636;SDS011;37713;53.254;6.460;2023-12-22T00:11:03;26.02;;;4.32;;
51636;SDS011;37713;53.254;6.460;2023-12-22T00:13:29;22.15;;;3.63;;
51636;SDS011;37713;53.254;6.460;2023-12-22T00:15:55;19.38;;;3.08;;
51636;SDS011;37713;53.254;6.460;2023-12-22T00:18:21;28.30;;;3.28;;
51636;SDS011;37713;53.254;6.460;2023-12-22T00:20:46;27.98;;;4.43;;
51636;SDS011;37713;53.254;6.460;2023-12-22T00:23:12;25.83;;;5.43;;
51636;SDS011;37713;53.254;6.460;2023-12-22T00:25:38;27.63;;;4.18;;
51636;SDS011;37713;53.254;6.460;2023-12-22T00:28:04;18.92;;;3.20;;
51636;SDS011;37713;53.254;6.460;2023-12-22T00:30:30;23.83;;;3.90;;
51636;SDS011;37713;53.254;6.460;2023-12-22T00:32:55;26.42;;;4.18;;
51636;SDS011;37713;53.254;6.460;2023-12-22T00:35:21;20.45;;;3.03;;
51636;SDS011;37713;53.254;6.460;2023-12-22T00:37:47;15.15;;;1.70;;
51636;SDS011;37713;53.254;6.460;2023-12-22T00:40:15;7.68;;;1.35;;
51636;SDS011;37713;53.254;6.460;2023-12-22T00:42:41;9.45;;;1.67;;
51636;SDS011;37713;53.254;6.460;2023-12-22T00:45:07;16.65;;;1.98;;
51636;SDS011;37713;53.254;6.460;2023-12-22T00:47:33;15.80;;;2.92;;
51636;SDS011;37713;53.254;6.460;2023-12-22T00:50:01;15.65;;;2.05;;
51636;SDS011;37713;53.254;6.460;2023-12-22T00:52:29;16.63;;;2.33;;
51636;SDS011;37713;53.254;6.460;2023-12-22T00:54:55;13.05;;;1.92;;
51636;SDS011;37713;53.254;6.460;2023-12-22T00:57:21;12.35;;;1.30;;
51636;SDS011;37713;53.254;6.460;2023-12-22T00:59:47;10.27;;;1.50;;
51636;SDS011;37713;53.254;6.460;2023-12-22T01:02:14;12.48;;;2.00;;
51636;SDS011;37713;53.254;6.460;2023-12-22T01:04:40;19.58;;;3.10;;
51636;SDS011;37713;53.254;6.460;2023-12-22T01:07:09;20.92;;;3.17;;
51636;SDS011;37713;53.254;6.460;2023-12-22T01:09:36;22.40;;;3.05;;
51636;SDS011;37713;53.254;6.460;2023-12-22T01:12:05;22.30;;;3.10;;
51636;SDS011;37713;53.254;6.460;2023-12-22T01:14:32;30.58;;;4.20;;
51636;SDS011;37713;53.254;6.460;2023-12-22T01:16:58;22.70;;;4.20;;
51636;SDS011;37713;53.254;6.460;2023-12-22T01:19:25;37.00;;;5.22;;
51636;SDS011;37713;53.254;6.460;2023-12-22T01:21:51;34.30;;;5.50;;
51636;SDS011;37713;53.254;6.460;2023-12-22T01:24:17;29.90;;;5.25;;
51636;SDS011;37713;53.254;6.460;2023-12-22T01:26:43;30.80;;;4.65;;
51636;SDS011;37713;53.254;6.460;2023-12-22T01:29:08;27.98;;;5.10;;
51636;SDS011;37713;53.254;6.460;2023-12-22T01:31:34;24.95;;;4.70;;
51636;SDS011;37713;53.254;6.460;2023-12-22T01:34:00;28.73;;;4.78;;
51636;SDS011;37713;53.254;6.460;2023-12-22T01:36:26;25.40;;;3.97;;
51636;SDS011;37713;53.254;6.460;2023-12-22T01:38:51;31.50;;;4.47;;
51636;SDS011;37713;53.254;6.460;2023-12-22T01:41:17;23.67;;;5.05;;
51636;SDS011;37713;53.254;6.460;2023-12-22T01:43:43;25.90;;;3.53;;
51636;SDS011;37713;53.254;6.460;2023-12-22T01:46:09;21.17;;;3.22;;
51636;SDS011;37713;53.254;6.460;2023-12-22T01:48:36;19.35;;;2.63;;
51636;SDS011;37713;53.254;6.460;2023-12-22T01:51:02;22.80;;;3.55;;
51636;SDS011;37713;53.254;6.460;2023-12-22T01:53:29;20.67;;;3.67;;
51636;SDS011;37713;53.254;6.460;2023-12-22T01:55:56;28.23;;;3.60;;
51636;SDS011;37713;53.254;6.460;2023-12-22T01:58:24;25.00;;;3.75;;
51636;SDS011;37713;53.254;6.460;2023-12-22T02:00:52;30.35;;;4.20;;
51636;SDS011;37713;53.254;6.460;2023-12-22T02:03:19;33.00;;;4.70;;
51636;SDS011;37713;53.254;6.460;2023-12-22T02:05:45;22.73;;;3.90;;
51636;SDS011;37713;53.254;6.460;2023-12-22T02:08:11;34.15;;;4.80;;
51636;SDS011;37713;53.254;6.460;2023-12-22T02:10:37;28.48;;;4.85;;
51636;SDS011;37713;53.254;6.460;2023-12-22T02:13:04;25.77;;;3.70;;
51636;SDS011;37713;53.254;6.460;2023-12-22T02:15:30;22.40;;;4.18;;
51636;SDS011;37713;53.254;6.460;2023-12-22T02:18:10;24.45;;;3.40;;
51636;SDS011;37713;53.254;6.460;2023-12-22T02:20:41;23.02;;;3.88;;
51636;SDS011;37713;53.254;6.460;2023-12-22T02:23:09;23.55;;;3.83;;
51636;SDS011;37713;53.254;6.460;2023-12-22T02:25:35;17.60;;;2.47;;
51636;SDS011;37713;53.254;6.460;2023-12-22T02:28:05;16.00;;;2.95;;
51636;SDS011;37713;53.254;6.460;2023-12-22T02:30:47;17.60;;;3.00;;
51636;SDS011;37713;53.254;6.460;2023-12-22T02:33:22;18.67;;;2.80;;
51636;SDS011;37713;53.254;6.460;2023-12-22T02:35:49;27.45;;;3.22;;
51636;SDS011;37713;53.254;6.460;2023-12-22T02:38:16;22.13;;;4.03;;
51636;SDS011;37713;53.254;6.460;2023-12-22T02:40:44;25.90;;;3.90;;
51636;SDS011;37713;53.254;6.460;2023-12-22T02:43:10;23.83;;;3.90;;
51636;SDS011;37713;53.254;6.460;2023-12-22T02:45:36;34.08;;;4.47;;
51636;SDS011;37713;53.254;6.460;2023-12-22T02:48:02;30.55;;;4.15;;
51636;SDS011;37713;53.254;6.460;2023-12-22T02:50:28;32.60;;;3.97;;
51636;SDS011;37713;53.254;6.460;2023-12-22T02:52:54;26.23;;;3.63;;
51636;SDS011;37713;53.254;6.460;2023-12-22T02:55:20;26.40;;;3.70;;
51636;SDS011;37713;53.254;6.460;2023-12-22T02:57:45;30.25;;;3.95;;
51636;SDS011;37713;53.254;6.460;2023-12-22T03:00:11;21.92;;;3.42;;
51636;SDS011;37713;53.254;6.460;2023-12-22T03:02:37;20.60;;;2.53;;
51636;SDS011;37713;53.254;6.460;2023-12-22T03:05:03;12.77;;;1.60;;
51636;SDS011;37713;53.254;6.460;2023-12-22T03:07:29;11.07;;;1.60;;
51636;SDS011;37713;53.254;6.460;2023-12-22T03:09:55;15.23;;;2.53;;
51636;SDS011;37713;53.254;6.460;2023-12-22T03:12:21;16.23;;;2.00;;
51636;SDS011;37713;53.254;6.460;2023-12-22T03:14:47;19.23;;;2.38;;
51636;SDS011;37713;53.254;6.460;2023-12-22T03:17:12;17.70;;;2.28;;
51636;SDS011;37713;53.254;6.460;2023-12-22T03:19:39;20.70;;;2.60;;
51636;SDS011;37713;53.254;6.460;2023-12-22T03:22:05;20.00;;;2.63;;
51636;SDS011;37713;53.254;6.460;2023-12-22T03:24:31;23.05;;;3.55;;
51636;SDS011;37713;53.254;6.460;2023-12-22T03:26:57;21.63;;;3.22;;
51636;SDS011;37713;53.254;6.460;2023-12-22T03:29:23;25.92;;;3.72;;
51636;SDS011;37713;53.254;6.460;2023-12-22T03:31:48;27.42;;;4.43;;
51636;SDS011;37713;53.254;6.460;2023-12-22T03:34:14;24.67;;;4.13;;
51636;SDS011;37713;53.254;6.460;2023-12-22T03:36:40;23.05;;;4.18;;
51636;SDS011;37713;53.254;6.460;2023-12-22T03:39:06;15.85;;;2.30;;
51636;SDS011;37713;53.254;6.460;2023-12-22T03:41:31;18.67;;;2.58;;
51636;SDS011;37713;53.254;6.460;2023-12-22T03:43:57;12.85;;;1.92;;
51636;SDS011;37713;53.254;6.460;2023-12-22T03:46:23;15.10;;;2.20;;
51636;SDS011;37713;53.254;6.460;2023-12-22T03:48:50;10.50;;;1.77;;
51636;SDS011;37713;53.254;6.460;2023-12-22T03:51:16;16.35;;;2.55;;
51636;SDS011;37713;53.254;6.460;2023-12-22T03:53:41;19.08;;;2.75;;
51636;SDS011;37713;53.254;6.460;2023-12-22T03:56:08;17.80;;;3.35;;
51636;SDS011;37713;53.254;6.460;2023-12-22T03:58:34;17.33;;;2.67;;
51636;SDS011;37713;53.254;6.460;2023-12-22T04:01:00;19.40;;;3.60;;
51636;SDS011;37713;53.254;6.460;2023-12-22T04:03:26;21.98;;;3.15;;
51636;SDS011;37713;53.254;6.460;2023-12-22T04:05:52;25.02;;;3.53;;
51636;SDS011;37713;53.254;6.460;2023-12-22T04:08:18;21.17;;;4.05;;
51636;SDS011;37713;53.254;6.460;2023-12-22T04:10:45;30.50;;;4.20;;
51636;SDS011;37713;53.254;6.460;2023-12-22T04:13:12;32.63;;;4.60;;
51636;SDS011;37713;53.254;6.460;2023-12-22T04:15:38;33.90;;;4.78;;
51636;SDS011;37713;53.254;6.460;2023-12-22T04:18:04;32.75;;;5.10;;
51636;SDS011;37713;53.254;6.460;2023-12-22T04:20:30;28.58;;;4.78;;
51636;SDS011;37713;53.254;6.460;2023-12-22T04:22:56;29.30;;;4.63;;
51636;SDS011;37713;53.254;6.460;2023-12-22T04:25:22;25.67;;;4.15;;
51636;SDS011;37713;53.254;6.460;2023-12-22T04:27:49;25.48;;;4.35;;
51636;SDS011;37713;53.254;6.460;2023-12-22T04:30:15;26.05;;;3.85;;
51636;SDS011;37713;53.254;6.460;2023-12-22T04:32:41;20.92;;;3.67;;
51636;SDS011;37713;53.254;6.460;2023-12-22T04:35:07;15.55;;;2.90;;
51636;SDS011;37713;53.254;6.460;2023-12-22T04:37:33;21.30;;;3.65;;
51636;SDS011;37713;53.254;6.460;2023-12-22T04:39:59;25.30;;;3.70;;
51636;SDS011;37713;53.254;6.460;2023-12-22T04:42:25;19.90;;;3.75;;
51636;SDS011;37713;53.254;6.460;2023-12-22T04:44:51;24.95;;;4.25;;
51636;SDS011;37713;53.254;6.460;2023-12-22T04:47:17;25.75;;;4.32;;
51636;SDS011;37713;53.254;6.460;2023-12-22T04:49:43;34.15;;;4.97;;
51636;SDS011;37713;53.254;6.460;2023-12-22T04:52:10;32.25;;;4.55;;
51636;SDS011;37713;53.254;6.460;2023-12-22T04:54:37;23.83;;;3.60;;
51636;SDS011;37713;53.254;6.460;2023-12-22T04:57:03;23.65;;;3.80;;
51636;SDS011;37713;53.254;6.460;2023-12-22T04:59:29;24.02;;;3.13;;
51636;SDS011;37713;53.254;6.460;2023-12-22T05:01:55;25.88;;;3.58;;
51636;SDS011;37713;53.254;6.460;2023-12-22T05:04:21;28.88;;;3.78;;
51636;SDS011;37713;53.254;6.460;2023-12-22T05:06:47;21.17;;;3.55;;
51636;SDS011;37713;53.254;6.460;2023-12-22T05:09:13;23.15;;;3.63;;
51636;SDS011;37713;53.254;6.460;2023-12-22T05:11:41;20.23;;;3.28;;
51636;SDS011;37713;53.254;6.460;2023-12-22T05:14:06;24.98;;;3.63;;
51636;SDS011;37713;53.254;6.460;2023-12-22T05:16:33;28.73;;;4.53;;
51636;SDS011;37713;53.254;6.460;2023-12-22T05:18:59;24.52;;;3.83;;
51636;SDS011;37713;53.254;6.460;2023-12-22T05:21:25;26.58;;;4.38;;
51636;SDS011;37713;53.254;6.460;2023-12-22T05:23:52;31.30;;;4.63;;
51636;SDS011;37713;53.254;6.460;2023-12-22T05:26:19;24.02;;;4.28;;
51636;SDS011;37713;53.254;6.460;2023-12-22T05:28:46;27.02;;;4.85;;
51636;SDS011;37713;53.254;6.460;2023-12-22T05:31:12;33.17;;;4.95;;
51636;SDS011;37713;53.254;6.460;2023-12-22T05:33:38;25.08;;;4.28;;
51636;SDS011;37713;53.254;6.460;2023-12-22T05:36:04;24.88;;;4.03;;
51636;SDS011;37713;53.254;6.460;2023-12-22T05:38:30;22.25;;;3.88;;
51636;SDS011;37713;53.254;6.460;2023-12-22T05:40:56;25.00;;;3.70;;
51636;SDS011;37713;53.254;6.460;2023-12-22T05:43:22;24.67;;;4.32;;
51636;SDS011;37713;53.254;6.460;2023-12-22T05:45:48;28.13;;;4.18;;
51636;SDS011;37713;53.254;6.460;2023-12-22T05:48:14;29.95;;;4.10;;
51636;SDS011;37713;53.254;6.460;2023-12-22T05:50:40;26.48;;;3.92;;
51636;SDS011;37713;53.254;6.460;2023-12-22T05:53:05;30.25;;;4.05;;
51636;SDS011;37713;53.254;6.460;2023-12-22T05:55:31;25.70;;;4.57;;
51636;SDS011;37713;53.254;6.460;2023-12-22T05:57:57;30.30;;;3.95;;
51636;SDS011;37713;53.254;6.460;2023-12-22T06:00:23;30.38;;;4.10;;
51636;SDS011;37713;53.254;6.460;2023-12-22T06:02:48;24.08;;;3.97;;
51636;SDS011;37713;53.254;6.460;2023-12-22T06:05:14;26.73;;;3.88;;
51636;SDS011;37713;53.254;6.460;2023-12-22T06:07:40;21.20;;;4.35;;
51636;SDS011;37713;53.254;6.460;2023-12-22T06:10:07;28.20;;;4.25;;
51636;SDS011;37713;53.254;6.460;2023-12-22T06:12:34;28.17;;;3.85;;
51636;SDS011;37713;53.254;6.460;2023-12-22T06:15:00;25.38;;;3.50;;
51636;SDS011;37713;53.254;6.460;2023-12-22T06:17:26;24.52;;;3.42;;
51636;SDS011;37713;53.254;6.460;2023-12-22T06:19:52;20.17;;;3.50;;
51636;SDS011;37713;53.254;6.460;2023-12-22T06:22:18;27.35;;;4.07;;
51636;SDS011;37713;53.254;6.460;2023-12-22T06:24:43;36.83;;;5.13;;
51636;SDS011;37713;53.254;6.460;2023-12-22T06:27:10;33.35;;;4.65;;
51636;SDS011;37713;53.254;6.460;2023-12-22T06:29:35;31.85;;;5.18;;
51636;SDS011;37713;53.254;6.460;2023-12-22T06:32:01;23.23;;;3.70;;
51636;SDS011;37713;53.254;6.460;2023-12-22T06:34:27;27.13;;;4.43;;
51636;SDS011;37713;53.254;6.460;2023-12-22T06:36:53;29.38;;;4.18;;
51636;SDS011;37713;53.254;6.460;2023-12-22T06:39:19;30.17;;;4.25;;
51636;SDS011;37713;53.254;6.460;2023-12-22T06:41:45;26.48;;;4.95;;
51636;SDS011;37713;53.254;6.460;2023-12-22T06:44:10;18.05;;;2.88;;
51636;SDS011;37713;53.254;6.460;2023-12-22T06:46:36;13.00;;;2.60;;
51636;SDS011;37713;53.254;6.460;2023-12-22T06:49:02;14.70;;;2.50;;
51636;SDS011;37713;53.254;6.460;2023-12-22T06:51:29;14.75;;;2.55;;
51636;SDS011;37713;53.254;6.460;2023-12-22T06:53:55;20.15;;;2.60;;
51636;SDS011;37713;53.254;6.460;2023-12-22T06:56:28;17.80;;;3.30;;
51636;SDS011;37713;53.254;6.460;2023-12-22T06:58:58;31.40;;;3.72;;
51636;SDS011;37713;53.254;6.460;2023-12-22T07:01:31;21.67;;;3.37;;
51636;SDS011;37713;53.254;6.460;2023-12-22T07:03:58;19.58;;;2.92;;
51636;SDS011;37713;53.254;6.460;2023-12-22T07:06:31;20.42;;;3.45;;
51636;SDS011;37713;53.254;6.460;2023-12-22T07:11:51;23.00;;;3.65;;
51636;SDS011;37713;53.254;6.460;2023-12-22T07:14:21;23.58;;;3.10;;
51636;SDS011;37713;53.254;6.460;2023-12-22T07:16:47;23.67;;;3.70;;
51636;SDS011;37713;53.254;6.460;2023-12-22T07:19:12;23.08;;;3.35;;
51636;SDS011;37713;53.254;6.460;2023-12-22T07:21:41;23.20;;;3.20;;
51636;SDS011;37713;53.254;6.460;2023-12-22T07:24:08;22.00;;;3.08;;
51636;SDS011;37713;53.254;6.460;2023-12-22T07:26:34;24.88;;;4.22;;
51636;SDS011;37713;53.254;6.460;2023-12-22T07:28:59;26.60;;;3.75;;
51636;SDS011;37713;53.254;6.460;2023-12-22T07:31:27;21.92;;;3.45;;
51636;SDS011;37713;53.254;6.460;2023-12-22T07:33:53;23.75;;;3.58;;
51636;SDS011;37713;53.254;6.460;2023-12-22T07:36:19;22.00;;;3.33;;
51636;SDS011;37713;53.254;6.460;2023-12-22T07:38:46;24.00;;;3.67;;
51636;SDS011;37713;53.254;6.460;2023-12-22T07:41:12;19.88;;;3.03;;
51636;SDS011;37713;53.254;6.460;2023-12-22T07:43:38;24.15;;;3.65;;
51636;SDS011;37713;53.254;6.460;2023-12-22T07:46:04;22.65;;;4.18;;
51636;SDS011;37713;53.254;6.460;2023-12-22T07:48:30;22.35;;;3.55;;
51636;SDS011;37713;53.254;6.460;2023-12-22T07:50:55;27.55;;;3.83;;
51636;SDS011;37713;53.254;6.460;2023-12-22T07:53:21;18.65;;;3.03;;
51636;SDS011;37713;53.254;6.460;2023-12-22T07:55:47;24.52;;;3.55;;
51636;SDS011;37713;53.254;6.460;2023-12-22T07:58:13;20.25;;;2.88;;
51636;SDS011;37713;53.254;6.460;2023-12-22T08:00:42;28.80;;;3.50;;
51636;SDS011;37713;53.254;6.460;2023-12-22T08:03:08;17.23;;;3.03;;
51636;SDS011;37713;53.254;6.460;2023-12-22T08:05:35;25.27;;;3.53;;
51636;SDS011;37713;53.254;6.460;2023-12-22T08:08:00;23.83;;;3.10;;
51636;SDS011;37713;53.254;6.460;2023-12-22T08:10:26;19.08;;;3.10;;
51636;SDS011;37713;53.254;6.460;2023-12-22T08:12:52;19.35;;;2.92;;
51636;SDS011;37713;53.254;6.460;2023-12-22T08:15:18;23.02;;;2.75;;
51636;SDS011;37713;53.254;6.460;2023-12-22T08:17:47;26.45;;;3.47;;
51636;SDS011;37713;53.254;6.460;2023-12-22T08:20:20;20.60;;;2.78;;
51636;SDS011;37713;53.254;6.460;2023-12-22T08:22:46;16.30;;;2.47;;
51636;SDS011;37713;53.254;6.460;2023-12-22T08:25:14;27.83;;;3.35;;
51636;SDS011;37713;53.254;6.460;2023-12-22T08:27:41;21.95;;;3.15;;
51636;SDS011;37713;53.254;6.460;2023-12-22T08:30:07;22.73;;;3.47;;
51636;SDS011;37713;53.254;6.460;2023-12-22T08:32:36;18.20;;;2.95;;
51636;SDS011;37713;53.254;6.460;2023-12-22T08:35:02;17.38;;;3.40;;
51636;SDS011;37713;53.254;6.460;2023-12-22T08:37:29;14.43;;;2.50;;
51636;SDS011;37713;53.254;6.460;2023-12-22T08:39:56;23.90;;;2.65;;
51636;SDS011;37713;53.254;6.460;2023-12-22T08:42:23;21.70;;;2.97;;
51636;SDS011;37713;53.254;6.460;2023-12-22T08:44:53;22.63;;;2.67;;
51636;SDS011;37713;53.254;6.460;2023-12-22T08:47:19;22.15;;;3.05;;
51636;SDS011;37713;53.254;6.460;2023-12-22T08:49:45;19.35;;;2.78;;
51636;SDS011;37713;53.254;6.460;2023-12-22T08:52:11;26.63;;;3.55;;
51636;SDS011;37713;53.254;6.460;2023-12-22T08:54:37;17.90;;;3.10;;
51636;SDS011;37713;53.254;6.460;2023-12-22T08:57:03;20.83;;;4.15;;
51636;SDS011;37713;53.254;6.460;2023-12-22T08:59:29;20.70;;;3.72;;
51636;SDS011;37713;53.254;6.460;2023-12-22T09:01:55;22.42;;;3.38;;
51636;SDS011;37713;53.254;6.460;2023-12-22T09:04:20;21.17;;;3.47;;
51636;SDS011;37713;53.254;6.460;2023-12-22T09:06:48;22.80;;;3.83;;
51636;SDS011;37713;53.254;6.460;2023-12-22T09:09:14;23.98;;;2.88;;
51636;SDS011;37713;53.254;6.460;2023-12-22T09:11:40;25.73;;;4.78;;
51636;SDS011;37713;53.254;6.460;2023-12-22T09:14:06;21.95;;;4.95;;
51636;SDS011;37713;53.254;6.460;2023-12-22T09:16:34;19.33;;;3.00;;
51636;SDS011;37713;53.254;6.460;2023-12-22T09:19:01;23.58;;;3.45;;
51636;SDS011;37713;53.254;6.460;2023-12-22T09:21:28;22.60;;;3.50;;
51636;SDS011;37713;53.254;6.460;2023-12-22T09:23:53;26.10;;;3.17;;
51636;SDS011;37713;53.254;6.460;2023-12-22T09:26:19;20.23;;;2.78;;
51636;SDS011;37713;53.254;6.460;2023-12-22T09:28:45;26.92;;;2.95;;
51636;SDS011;37713;53.254;6.460;2023-12-22T09:31:11;19.30;;;2.80;;
51636;SDS011;37713;53.254;6.460;2023-12-22T09:33:38;19.13;;;3.17;;
51636;SDS011;37713;53.254;6.460;2023-12-22T09:36:05;15.25;;;2.78;;
51636;SDS011;37713;53.254;6.460;2023-12-22T09:38:31;22.08;;;3.83;;
51636;SDS011;37713;53.254;6.460;2023-12-22T09:40:57;21.75;;;3.10;;
51636;SDS011;37713;53.254;6.460;2023-12-22T09:43:24;16.75;;;2.20;;
51636;SDS011;37713;53.254;6.460;2023-12-22T09:45:50;16.55;;;2.30;;
51636;SDS011;37713;53.254;6.460;2023-12-22T09:48:17;19.65;;;2.70;;
51636;SDS011;37713;53.254;6.460;2023-12-22T09:50:46;16.20;;;2.40;;
51636;SDS011;37713;53.254;6.460;2023-12-22T09:53:12;21.48;;;2.75;;
51636;SDS011;37713;53.254;6.460;2023-12-22T09:55:40;20.27;;;2.75;;
51636;SDS011;37713;53.254;6.460;2023-12-22T09:58:11;18.33;;;3.08;;
51636;SDS011;37713;53.254;6.460;2023-12-22T10:00:42;14.93;;;3.15;;
51636;SDS011;37713;53.254;6.460;2023-12-22T10:03:09;18.05;;;3.33;;
51636;SDS011;37713;53.254;6.460;2023-12-22T10:05:42;14.35;;;2.13;;
51636;SDS011;37713;53.254;6.460;2023-12-22T10:08:08;16.92;;;2.58;;
51636;SDS011;37713;53.254;6.460;2023-12-22T10:10:38;18.50;;;2.70;;
51636;SDS011;37713;53.254;6.460;2023-12-22T10:13:08;15.88;;;2.60;;
51636;SDS011;37713;53.254;6.460;2023-12-22T10:15:36;19.90;;;2.40;;
51636;SDS011;37713;53.254;6.460;2023-12-22T10:18:06;15.05;;;2.65;;
51636;SDS011;37713;53.254;6.460;2023-12-22T10:20:32;22.33;;;3.47;;
51636;SDS011;37713;53.254;6.460;2023-12-22T10:22:58;16.38;;;2.88;;
51636;SDS011;37713;53.254;6.460;2023-12-22T10:25:27;17.38;;;2.28;;
51636;SDS011;37713;53.254;6.460;2023-12-22T10:27:54;14.70;;;3.17;;
51636;SDS011;37713;53.254;6.460;2023-12-22T10:30:21;21.52;;;2.63;;
51636;SDS011;37713;53.254;6.460;2023-12-22T10:32:49;24.17;;;3.33;;
51636;SDS011;37713;53.254;6.460;2023-12-22T10:35:17;16.58;;;2.58;;
51636;SDS011;37713;53.254;6.460;2023-12-22T10:37:43;18.27;;;2.85;;
51636;SDS011;37713;53.254;6.460;2023-12-22T10:40:11;15.23;;;2.40;;
51636;SDS011;37713;53.254;6.460;2023-12-22T10:42:37;17.83;;;2.80;;
51636;SDS011;37713;53.254;6.460;2023-12-22T10:45:05;21.75;;;3.45;;
51636;SDS011;37713;53.254;6.460;2023-12-22T10:47:31;15.77;;;2.45;;
51636;SDS011;37713;53.254;6.460;2023-12-22T10:50:01;15.90;;;2.33;;
51636;SDS011;37713;53.254;6.460;2023-12-22T10:52:29;17.45;;;2.67;;
51636;SDS011;37713;53.254;6.460;2023-12-22T10:54:56;16.35;;;2.78;;
51636;SDS011;37713;53.254;6.460;2023-12-22T10:57:23;19.83;;;3.28;;
51636;SDS011;37713;53.254;6.460;2023-12-22T10:59:49;17.38;;;2.70;;
51636;SDS011;37713;53.254;6.460;2023-12-22T11:02:17;18.45;;;2.97;;
51636;SDS011;37713;53.254;6.460;2023-12-22T11:05:05;15.73;;;2.60;;
51636;SDS011;37713;53.254;6.460;2023-12-22T11:07:32;19.88;;;2.63;;
51636;SDS011;37713;53.254;6.460;2023-12-22T11:10:03;25.23;;;3.20;;
51636;SDS011;37713;53.254;6.460;2023-12-22T11:12:37;17.33;;;2.65;;
51636;SDS011;37713;53.254;6.460;2023-12-22T11:15:04;25.90;;;4.03;;
51636;SDS011;37713;53.254;6.460;2023-12-22T11:17:34;17.52;;;2.67;;
51636;SDS011;37713;53.254;6.460;2023-12-22T11:20:02;16.10;;;3.03;;
51636;SDS011;37713;53.254;6.460;2023-12-22T11:22:29;16.65;;;2.70;;
51636;SDS011;37713;53.254;6.460;2023-12-22T11:24:57;12.50;;;2.35;;
51636;SDS011;37713;53.254;6.460;2023-12-22T11:27:25;19.10;;;2.97;;
51636;SDS011;37713;53.254;6.460;2023-12-22T11:29:53;15.07;;;2.22;;
51636;SDS011;37713;53.254;6.460;2023-12-22T11:32:19;18.30;;;2.85;;
51636;SDS011;37713;53.254;6.460;2023-12-22T11:34:46;29.83;;;3.30;;
51636;SDS011;37713;53.254;6.460;2023-12-22T11:37:13;20.38;;;3.05;;
51636;SDS011;37713;53.254;6.460;2023-12-22T11:39:43;20.17;;;2.85;;
51636;SDS011;37713;53.254;6.460;2023-12-22T11:42:12;23.00;;;3.70;;
51636;SDS011;37713;53.254;6.460;2023-12-22T11:44:43;19.38;;;3.67;;
51636;SDS011;37713;53.254;6.460;2023-12-22T11:47:10;18.02;;;2.80;;
51636;SDS011;37713;53.254;6.460;2023-12-22T11:49:38;17.73;;;2.97;;
51636;SDS011;37713;53.254;6.460;2023-12-22T11:52:14;19.98;;;3.20;;
51636;SDS011;37713;53.254;6.460;2023-12-22T11:54:48;18.30;;;4.30;;
51636;SDS011;37713;53.254;6.460;2023-12-22T12:00:04;17.80;;;2.90;;
51636;SDS011;37713;53.254;6.460;2023-12-22T12:02:33;13.93;;;3.00;;
51636;SDS011;37713;53.254;6.460;2023-12-22T12:05:01;17.48;;;2.53;;
51636;SDS011;37713;53.254;6.460;2023-12-22T12:07:49;16.48;;;2.78;;
51636;SDS011;37713;53.254;6.460;2023-12-22T12:13:06;19.17;;;3.05;;
51636;SDS011;37713;53.254;6.460;2023-12-22T12:15:36;16.45;;;2.60;;
51636;SDS011;37713;53.254;6.460;2023-12-22T12:18:03;16.92;;;2.78;;
51636;SDS011;37713;53.254;6.460;2023-12-22T12:20:29;17.40;;;3.53;;
51636;SDS011;37713;53.254;6.460;2023-12-22T12:22:55;16.75;;;2.78;;
51636;SDS011;37713;53.254;6.460;2023-12-22T12:25:22;13.57;;;2.38;;
51636;SDS011;37713;53.254;6.460;2023-12-22T12:28:03;14.27;;;2.15;;
51636;SDS011;37713;53.254;6.460;2023-12-22T12:30:31;16.30;;;3.08;;
51636;SDS011;37713;53.254;6.460;2023-12-22T12:33:08;17.60;;;2.25;;
51636;SDS011;37713;53.254;6.460;2023-12-22T12:35:35;16.85;;;2.17;;
51636;SDS011;37713;53.254;6.460;2023-12-22T12:38:04;13.10;;;1.95;;
51636;SDS011;37713;53.254;6.460;2023-12-22T12:40:31;18.73;;;2.05;;
51636;SDS011;37713;53.254;6.460;2023-12-22T12:43:00;10.90;;;1.97;;
51636;SDS011;37713;53.254;6.460;2023-12-22T12:45:27;15.77;;;1.85;;
51636;SDS011;37713;53.254;6.460;2023-12-22T12:47:54;16.92;;;2.10;;
51636;SDS011;37713;53.254;6.460;2023-12-22T12:50:24;15.52;;;2.13;;
51636;SDS011;37713;53.254;6.460;2023-12-22T12:52:54;16.08;;;2.05;;
51636;SDS011;37713;53.254;6.460;2023-12-22T12:55:25;14.32;;;1.88;;
51636;SDS011;37713;53.254;6.460;2023-12-22T12:57:51;13.85;;;2.10;;
51636;SDS011;37713;53.254;6.460;2023-12-22T13:02:50;19.75;;;3.30;;
51636;SDS011;37713;53.254;6.460;2023-12-22T13:07:50;14.57;;;2.33;;
51636;SDS011;37713;53.254;6.460;2023-12-22T13:10:19;11.35;;;1.70;;
51636;SDS011;37713;53.254;6.460;2023-12-22T13:12:46;13.55;;;2.20;;
51636;SDS011;37713;53.254;6.460;2023-12-22T13:15:14;13.25;;;2.45;;
51636;SDS011;37713;53.254;6.460;2023-12-22T13:17:39;11.25;;;1.52;;
51636;SDS011;37713;53.254;6.460;2023-12-22T13:20:05;13.70;;;1.80;;
51636;SDS011;37713;53.254;6.460;2023-12-22T13:22:32;16.25;;;2.20;;
51636;SDS011;37713;53.254;6.460;2023-12-22T13:24:58;12.25;;;1.73;;
51636;SDS011;37713;53.254;6.460;2023-12-22T13:27:24;12.63;;;1.70;;
51636;SDS011;37713;53.254;6.460;2023-12-22T13:29:50;12.82;;;1.83;;
51636;SDS011;37713;53.254;6.460;2023-12-22T13:32:21;15.77;;;2.13;;
51636;SDS011;37713;53.254;6.460;2023-12-22T13:34:52;14.90;;;1.60;;
51636;SDS011;37713;53.254;6.460;2023-12-22T13:37:19;12.20;;;1.40;;
51636;SDS011;37713;53.254;6.460;2023-12-22T13:39:46;12.07;;;1.65;;
51636;SDS011;37713;53.254;6.460;2023-12-22T13:42:15;8.93;;;1.38;;
51636;SDS011;37713;53.254;6.460;2023-12-22T13:44:46;10.32;;;1.40;;
51636;SDS011;37713;53.254;6.460;2023-12-22T13:47:15;10.68;;;1.15;;
51636;SDS011;37713;53.254;6.460;2023-12-22T13:49:41;10.82;;;1.48;;
51636;SDS011;37713;53.254;6.460;2023-12-22T13:52:23;7.63;;;1.15;;
51636;SDS011;37713;53.254;6.460;2023-12-22T13:54:50;12.07;;;2.35;;
51636;SDS011;37713;53.254;6.460;2023-12-22T13:57:20;7.93;;;1.42;;
51636;SDS011;37713;53.254;6.460;2023-12-22T13:59:47;13.20;;;1.60;;
51636;SDS011;37713;53.254;6.460;2023-12-22T14:02:12;13.15;;;1.70;;
51636;SDS011;37713;53.254;6.460;2023-12-22T14:04:38;10.82;;;1.80;;
51636;SDS011;37713;53.254;6.460;2023-12-22T14:07:05;8.52;;;1.20;;
51636;SDS011;37713;53.254;6.460;2023-12-22T14:09:31;8.85;;;1.10;;
51636;SDS011;37713;53.254;6.460;2023-12-22T14:11:59;8.73;;;1.50;;
51636;SDS011;37713;53.254;6.460;2023-12-22T14:14:30;12.60;;;1.60;;
51636;SDS011;37713;53.254;6.460;2023-12-22T14:16:56;10.18;;;1.25;;
51636;SDS011;37713;53.254;6.460;2023-12-22T14:19:22;14.63;;;1.70;;
51636;SDS011;37713;53.254;6.460;2023-12-22T14:21:48;9.35;;;1.25;;
51636;SDS011;37713;53.254;6.460;2023-12-22T14:24:14;10.95;;;1.40;;
51636;SDS011;37713;53.254;6.460;2023-12-22T14:26:55;13.25;;;1.90;;
51636;SDS011;37713;53.254;6.460;2023-12-22T14:29:22;15.05;;;1.70;;
51636;SDS011;37713;53.254;6.460;2023-12-22T14:31:49;18.00;;;2.75;;
51636;SDS011;37713;53.254;6.460;2023-12-22T14:34:15;14.60;;;1.90;;
51636;SDS011;37713;53.254;6.460;2023-12-22T14:36:40;16.35;;;2.05;;
51636;SDS011;37713;53.254;6.460;2023-12-22T14:39:06;14.35;;;1.85;;
51636;SDS011;37713;53.254;6.460;2023-12-22T14:41:35;26.00;;;2.55;;
51636;SDS011;37713;53.254;6.460;2023-12-22T14:44:01;13.52;;;2.22;;
51636;SDS011;37713;53.254;6.460;2023-12-22T14:46:27;20.52;;;2.30;;
51636;SDS011;37713;53.254;6.460;2023-12-22T14:48:52;13.40;;;1.80;;